createdAt,value
2022-11-21T00:02:32.322Z,37.00
2022-11-21T00:07:37.100Z,36.23
2022-11-21T00:12:39.961Z,39.60
2022-11-21T00:17:42.971Z,37.90
2022-11-21T00:22:47.469Z,37.47
2022-11-21T00:27:50.462Z,33.90
2022-11-21T00:32:53.495Z,41.00
2022-11-21T00:37:57.802Z,35.43
2022-11-21T00:43:03.629Z,35.07
2022-11-21T00:48:07.481Z,28.57
2022-11-21T00:53:11.747Z,31.83
2022-11-21T00:58:14.700Z,33.87
2022-11-21T01:03:17.806Z,30.30
2022-11-21T01:08:22.153Z,29.23
2022-11-21T01:13:25.354Z,31.93
2022-11-21T01:18:28.439Z,31.17
2022-11-21T01:23:33.244Z,31.90
2022-11-21T01:28:36.391Z,35.33
2022-11-21T01:33:39.811Z,30.33
2022-11-21T01:38:46.015Z,29.47
2022-11-21T01:43:49.394Z,31.20
2022-11-21T01:48:56.421Z,37.70
2022-11-21T01:54:04.285Z,31.93
2022-11-21T01:59:12.608Z,35.13
2022-11-21T02:04:15.647Z,29.77
2022-11-21T02:09:21.022Z,32.70
2022-11-21T02:14:24.665Z,32.70
2022-11-21T02:19:36.691Z,34.50
2022-11-21T02:24:46.917Z,34.43
2022-11-21T02:29:51.194Z,33.00
2022-11-21T02:34:54.073Z,29.67
2022-11-21T02:40:00.063Z,34.03
2022-11-21T02:45:11.727Z,32.57
2022-11-21T02:50:16.626Z,33.30
2022-11-21T02:55:19.562Z,32.27
2022-11-21T03:00:24.756Z,36.80
2022-11-21T03:05:27.865Z,32.20
2022-11-21T03:10:30.772Z,27.53
2022-11-21T03:15:36.450Z,35.60
2022-11-21T03:20:39.686Z,31.10
2022-11-21T03:25:42.511Z,33.70
2022-11-21T03:30:46.738Z,28.70
2022-11-21T03:35:49.622Z,28.93
2022-11-21T03:40:52.535Z,29.30
2022-11-21T03:45:57.465Z,24.50
2022-11-21T03:51:00.449Z,20.90
2022-11-21T03:56:03.329Z,19.90
2022-11-21T04:01:07.675Z,15.00
2022-11-21T04:06:10.783Z,9.47
2022-11-21T04:11:14.173Z,7.60
2022-11-21T04:16:18.499Z,8.13
2022-11-21T04:21:21.388Z,8.83
2022-11-21T04:26:24.338Z,6.37
2022-11-21T04:31:28.555Z,10.40
2022-11-21T04:36:31.552Z,9.53
2022-11-21T04:41:34.455Z,15.30
2022-11-21T04:46:38.717Z,18.00
2022-11-21T04:51:41.633Z,11.80
2022-11-21T04:56:44.502Z,8.27
2022-11-21T05:01:49.733Z,5.90
2022-11-21T05:06:52.782Z,2.47
2022-11-21T05:12:13.228Z,5.80
2022-11-21T05:17:17.670Z,2.23
2022-11-21T05:22:20.567Z,2.57
2022-11-21T05:27:23.473Z,11.10
2022-11-21T05:32:27.705Z,5.03
2022-11-21T05:37:30.588Z,2.50
2022-11-21T05:42:51.123Z,12.17
2022-11-21T05:47:55.372Z,9.77
2022-11-21T05:53:02.450Z,13.60
2022-11-21T05:58:05.311Z,15.47
2022-11-21T06:03:30.637Z,12.13
2022-11-21T06:08:35.765Z,12.33
2022-11-21T06:13:38.981Z,8.07
2022-11-21T06:18:45.124Z,10.03
2022-11-21T06:23:49.233Z,12.30
2022-11-21T06:28:52.554Z,15.33
2022-11-21T06:33:57.993Z,12.50
2022-11-21T06:39:00.930Z,17.17
2022-11-21T06:44:03.871Z,13.03
2022-11-21T06:49:08.099Z,12.40
2022-11-21T06:54:16.273Z,13.10
2022-11-21T06:59:19.812Z,6.80
2022-11-21T07:04:24.179Z,5.03
2022-11-21T07:09:34.347Z,8.50
2022-11-21T07:14:37.338Z,6.10
2022-11-21T07:19:41.834Z,5.13
2022-11-21T07:24:44.773Z,4.70
2022-11-21T07:29:47.636Z,7.10
2022-11-21T07:34:51.926Z,8.53
2022-11-21T07:39:54.850Z,7.30
2022-11-21T07:44:57.747Z,10.33
2022-11-21T07:50:02.010Z,10.17
2022-11-21T07:55:05.882Z,13.97
2022-11-21T08:00:10.306Z,13.23
2022-11-21T08:05:14.711Z,17.63
2022-11-21T08:10:18.538Z,16.73
2022-11-21T08:15:21.457Z,17.77
2022-11-21T08:20:25.980Z,21.03
2022-11-21T08:25:28.985Z,19.73
2022-11-21T08:30:32.243Z,22.83
2022-11-21T08:35:38.347Z,27.50
2022-11-21T08:40:41.530Z,30.40
2022-11-21T08:45:44.971Z,30.27
2022-11-21T08:50:49.258Z,28.87
2022-11-21T08:55:52.094Z,24.13
2022-11-21T09:00:55.027Z,24.17
2022-11-21T09:05:59.852Z,25.77
2022-11-21T09:11:05.461Z,21.17
2022-11-21T09:16:26.034Z,19.67
2022-11-21T09:21:30.247Z,21.60
2022-11-21T09:26:33.106Z,20.83
2022-11-21T09:31:36.066Z,26.57
2022-11-21T09:36:40.306Z,19.53
2022-11-21T09:41:59.524Z,20.60
2022-11-21T09:47:12.186Z,21.60
2022-11-21T09:52:22.215Z,29.13
2022-11-21T09:57:32.062Z,22.27
2022-11-21T10:02:37.607Z,23.30
2022-11-21T10:07:43.535Z,18.90
2022-11-21T10:13:02.825Z,18.23
2022-11-21T10:18:24.970Z,21.27
2022-11-21T10:23:48.675Z,21.27
2022-11-21T10:28:56.568Z,24.93
2022-11-21T10:34:01.598Z,23.40
2022-11-21T10:39:13.821Z,22.00
2022-11-21T10:44:43.939Z,21.07
2022-11-21T10:49:48.343Z,23.47
2022-11-21T10:55:06.974Z,30.70
2022-11-21T11:00:24.921Z,30.23
2022-11-21T11:05:29.172Z,29.10
2022-11-21T11:10:35.234Z,27.57
2022-11-21T11:15:52.889Z,28.30
2022-11-21T11:21:13.123Z,27.70
2022-11-21T11:26:28.889Z,33.63
2022-11-21T11:31:41.432Z,32.27
2022-11-21T11:37:02.040Z,28.43
2022-11-21T11:42:53.528Z,30.63
2022-11-21T11:47:59.152Z,30.67
2022-11-21T11:53:08.683Z,35.07
2022-11-21T11:58:22.817Z,32.80
2022-11-21T12:03:32.918Z,35.87
2022-11-21T12:08:42.897Z,34.57
2022-11-21T12:13:49.494Z,34.43
2022-11-21T12:18:57.433Z,34.03
2022-11-21T12:24:04.209Z,33.60
2022-11-21T12:29:37.089Z,32.33
2022-11-21T12:35:06.825Z,43.60
2022-11-21T12:40:23.946Z,41.27
2022-11-21T12:45:32.653Z,44.07
2022-11-21T12:51:07.847Z,42.37
2022-11-21T12:56:20.628Z,40.77
2022-11-21T13:01:35.495Z,42.60
2022-11-21T13:06:41.719Z,39.40
2022-11-21T13:12:01.586Z,40.37
2022-11-21T13:17:15.457Z,77.27
2022-11-21T13:22:53.339Z,48.23
2022-11-21T13:27:56.264Z,39.90
2022-11-21T13:33:00.653Z,37.63
2022-11-21T13:38:04.764Z,41.50
2022-11-21T13:43:33.363Z,39.50
2022-11-21T13:49:06.593Z,48.63
2022-11-21T13:54:31.528Z,37.07
2022-11-21T13:59:55.668Z,42.00
2022-11-21T14:05:15.092Z,42.63
2022-11-21T14:10:33.930Z,45.10
2022-11-21T14:15:47.278Z,40.40
2022-11-21T14:20:56.884Z,47.47
2022-11-21T14:26:03.695Z,45.90
2022-11-21T14:31:08.296Z,49.57
2022-11-21T14:36:15.848Z,50.73
2022-11-21T14:41:32.749Z,44.57
2022-11-21T14:46:37.644Z,48.70
2022-11-21T14:51:42.529Z,46.57
2022-11-21T14:56:49.313Z,48.83
2022-11-21T15:02:01.753Z,48.10
2022-11-21T15:07:06.219Z,50.70
2022-11-21T15:12:11.666Z,51.47
2022-11-21T15:17:20.500Z,46.47
2022-11-21T15:22:30.804Z,43.77
2022-11-21T15:27:35.222Z,48.73
2022-11-21T15:33:09.454Z,51.20
2022-11-21T15:38:34.039Z,48.53
2022-11-21T15:43:40.762Z,41.90
2022-11-21T15:48:47.096Z,47.03
2022-11-21T15:53:52.337Z,44.10
2022-11-21T15:58:55.323Z,45.20
2022-11-21T16:04:00.154Z,45.60
2022-11-21T16:09:05.181Z,54.67
2022-11-21T16:14:10.034Z,55.17
2022-11-21T16:19:14.135Z,46.77
2022-11-21T16:24:18.892Z,58.00
2022-11-21T16:29:22.092Z,55.27
2022-11-21T16:34:25.103Z,50.33
2022-11-21T16:39:29.694Z,69.33
2022-11-21T16:44:32.931Z,51.70
2022-11-21T16:49:35.840Z,61.60
2022-11-21T16:54:40.705Z,52.40
2022-11-21T16:59:43.569Z,53.53
2022-11-21T17:04:47.055Z,54.90
2022-11-21T17:09:52.421Z,55.33
2022-11-21T17:14:55.351Z,47.73
2022-11-21T17:19:58.355Z,50.60
2022-11-21T17:25:03.289Z,44.40
2022-11-21T17:30:07.234Z,53.07
2022-11-21T17:35:11.263Z,49.47
2022-11-21T17:40:15.723Z,60.17
2022-11-21T17:45:18.658Z,54.47
2022-11-21T17:50:22.166Z,48.90
2022-11-21T17:55:26.453Z,51.73
2022-11-21T18:00:29.441Z,45.33
2022-11-21T18:05:32.318Z,43.70
2022-11-21T18:10:43.231Z,43.50
2022-11-21T18:15:48.049Z,41.37
2022-11-21T18:20:51.461Z,40.37
2022-11-21T18:25:55.706Z,52.50
2022-11-21T18:31:06.326Z,50.10
2022-11-21T18:36:10.813Z,53.60
2022-11-21T18:41:17.133Z,64.13
2022-11-21T18:46:21.102Z,50.57
2022-11-21T18:51:25.928Z,58.60
2022-11-21T18:56:31.096Z,47.57
2022-11-21T19:01:35.459Z,53.73
2022-11-21T19:06:38.536Z,55.37
2022-11-21T19:11:42.795Z,40.00
2022-11-21T19:16:45.643Z,39.37
2022-11-21T19:21:48.848Z,35.60
2022-11-21T19:26:53.595Z,49.50
2022-11-21T19:31:56.726Z,42.67
2022-11-21T19:36:59.606Z,45.13
2022-11-21T19:42:03.876Z,46.17
2022-11-21T19:47:06.948Z,49.17
2022-11-21T19:52:10.009Z,42.47
2022-11-21T19:57:14.342Z,53.10
2022-11-21T20:02:19.174Z,46.40
2022-11-21T20:07:22.313Z,42.53
2022-11-21T20:12:26.647Z,32.63
2022-11-21T20:17:29.907Z,38.00
2022-11-21T20:22:32.771Z,37.43
2022-11-21T20:27:37.037Z,47.50
2022-11-21T20:32:41.027Z,53.67
2022-11-21T20:37:43.993Z,36.03
2022-11-21T20:42:48.262Z,20.07
2022-11-21T20:47:51.120Z,23.10
2022-11-21T20:53:50.175Z,21.43
2022-11-21T20:58:18.316Z,24.27
2022-11-21T21:03:21.376Z,22.00
2022-11-21T21:08:24.956Z,22.33
2022-11-21T21:13:29.374Z,22.50
2022-11-21T21:18:33.762Z,45.20
2022-11-21T21:23:37.818Z,20.40
2022-11-21T21:28:42.817Z,22.60
2022-11-21T21:33:46.173Z,18.93
2022-11-21T21:38:51.754Z,44.70
2022-11-21T21:43:57.236Z,30.50
2022-11-21T21:49:00.227Z,40.07
2022-11-21T21:54:03.183Z,24.40
2022-11-21T21:59:07.491Z,15.53
2022-11-21T22:04:12.498Z,17.47
2022-11-21T22:09:15.499Z,21.40
2022-11-21T22:14:19.813Z,14.27
2022-11-21T22:19:23.898Z,19.03
2022-11-21T22:24:27.577Z,19.03
2022-11-21T22:29:32.254Z,15.53
2022-11-21T22:34:35.753Z,17.10
2022-11-21T22:39:38.688Z,16.07
2022-11-21T22:44:42.956Z,15.87
2022-11-21T22:49:45.849Z,21.43
2022-11-21T22:54:48.798Z,20.90
2022-11-21T22:59:53.391Z,19.93
2022-11-21T23:04:56.287Z,21.93
2022-11-21T23:09:59.810Z,21.40
2022-11-21T23:15:04.079Z,20.73
2022-11-21T23:20:07.768Z,21.57
2022-11-21T23:25:10.832Z,22.43
2022-11-21T23:30:17.120Z,27.57
2022-11-21T23:35:20.048Z,24.50
2022-11-21T23:40:24.033Z,25.60
2022-11-21T23:45:28.345Z,21.80
2022-11-21T23:50:31.230Z,23.43
2022-11-21T23:55:34.086Z,22.57
